createdAt,value
2022-11-12T00:05:10.344Z,7.85
2022-11-12T00:15:58.731Z,6.90
2022-11-12T00:18:26.321Z,5.28
2022-11-12T00:34:12.788Z,4.22
2022-11-12T00:36:40.356Z,4.40
2022-11-12T01:00:34.979Z,2.80
2022-11-12T01:03:02.461Z,2.95
2022-11-12T01:05:29.829Z,2.58
2022-11-12T01:07:57.184Z,3.17
2022-11-12T01:10:24.902Z,2.72
2022-11-12T01:12:52.383Z,2.50
2022-11-12T01:15:21.066Z,2.67
2022-11-12T01:44:20.484Z,2.90
2022-11-12T01:47:20.682Z,2.17
2022-11-12T01:54:10.770Z,2.75
2022-11-12T01:56:42.210Z,2.28
2022-11-12T01:59:20.862Z,3.00
2022-11-12T02:01:48.594Z,2.55
2022-11-12T02:04:16.292Z,2.63
2022-11-12T02:06:44.516Z,2.55
2022-11-12T02:18:22.855Z,3.70
2022-11-12T02:20:55.068Z,2.67
2022-11-12T02:36:35.995Z,2.47
2022-11-12T02:39:03.717Z,2.55
2022-11-12T02:54:45.129Z,2.50
2022-11-12T02:57:12.498Z,3.28
2022-11-12T02:59:39.966Z,2.55
2022-11-12T03:02:07.329Z,2.75
2022-11-12T03:04:34.928Z,3.00
2022-11-12T03:07:02.617Z,3.03
2022-11-12T03:23:00.880Z,2.75
2022-11-12T03:25:29.308Z,2.47
2022-11-12T03:28:01.953Z,3.38
2022-11-12T03:30:31.344Z,2.60
2022-11-12T03:32:59.667Z,2.55
2022-11-12T04:06:37.548Z,3.35
2022-11-12T04:22:05.229Z,3.17
2022-11-12T04:25:09.221Z,2.80
2022-11-12T04:27:36.793Z,2.85
2022-11-12T04:30:16.516Z,3.05
2022-11-12T04:32:50.356Z,3.15
2022-11-12T04:35:19.292Z,3.20
2022-11-12T04:37:47.081Z,2.47
2022-11-12T04:45:04.756Z,3.17
2022-11-12T04:47:35.859Z,2.78
2022-11-12T04:50:11.514Z,2.65
2022-11-12T04:58:00.860Z,2.67
2022-11-12T05:04:53.507Z,3.63
2022-11-12T05:07:21.271Z,3.88
2022-11-12T05:09:48.933Z,2.75
2022-11-12T05:30:21.108Z,3.65
2022-11-12T06:17:21.858Z,4.72
2022-11-12T06:37:32.186Z,4.60
2022-11-12T07:27:31.151Z,4.88
2022-11-12T07:43:15.310Z,5.00
2022-11-12T08:03:17.855Z,4.88
2022-11-12T08:22:38.138Z,5.57
2022-11-12T08:25:06.138Z,5.47
2022-11-12T08:27:33.942Z,4.85
2022-11-12T08:30:01.422Z,5.35
2022-11-12T08:41:22.202Z,5.50
2022-11-12T08:48:14.522Z,5.60
2022-11-12T08:50:42.357Z,6.40
2022-11-12T08:53:12.120Z,6.00
2022-11-12T08:55:40.211Z,6.38
2022-11-12T08:58:08.042Z,6.55
2022-11-12T09:00:40.695Z,6.60
2022-11-12T09:03:12.479Z,5.13
2022-11-12T09:05:39.961Z,7.03
2022-11-12T09:08:13.018Z,6.72
2022-11-12T09:10:41.162Z,6.60
2022-11-12T09:13:08.892Z,5.88
2022-11-12T09:15:38.282Z,7.55
2022-11-12T09:18:08.665Z,6.43
2022-11-12T09:20:36.251Z,7.35
2022-11-12T09:23:09.620Z,8.98
2022-11-12T09:25:37.212Z,8.77
2022-11-12T09:49:31.831Z,7.95
2022-11-12T09:57:16.112Z,8.90
2022-11-12T10:04:16.425Z,7.28
2022-11-12T10:11:18.906Z,7.95
2022-11-12T10:14:37.012Z,8.60
2022-11-12T10:17:44.335Z,6.43
2022-11-12T10:20:19.681Z,6.90
2022-11-12T10:23:22.967Z,6.47
2022-11-12T10:25:52.141Z,7.18
2022-11-12T10:28:19.489Z,7.75
2022-11-12T10:30:47.341Z,7.50
2022-11-12T10:33:15.656Z,7.13
2022-11-12T10:35:43.499Z,6.70
2022-11-12T10:51:20.736Z,5.30
2022-11-12T10:53:48.236Z,6.18
2022-11-12T10:56:30.186Z,5.40
2022-11-12T10:59:17.966Z,7.35
2022-11-12T11:01:46.835Z,5.75
2022-11-12T11:04:36.432Z,5.93
2022-11-12T11:07:06.540Z,5.70
2022-11-12T11:09:34.761Z,6.05
2022-11-12T11:12:02.358Z,5.45
2022-11-12T11:14:34.893Z,5.72
2022-11-12T11:21:50.604Z,5.55
2022-11-12T11:24:40.409Z,4.88
2022-11-12T11:27:29.965Z,4.70
2022-11-12T11:30:06.454Z,4.43
2022-11-12T11:32:37.440Z,4.07
2022-11-12T11:35:40.653Z,5.22
2022-11-12T11:38:16.296Z,4.22
2022-11-12T11:40:58.791Z,5.10
2022-11-12T11:43:39.230Z,4.50
2022-11-12T11:46:15.818Z,4.15
2022-11-12T11:49:13.976Z,5.40
2022-11-12T11:51:49.241Z,5.38
2022-11-12T11:54:46.671Z,5.30
2022-11-12T11:57:23.037Z,5.22
2022-11-12T12:00:15.350Z,4.80
2022-11-12T12:03:04.569Z,4.53
2022-11-12T12:05:45.245Z,4.63
2022-11-12T12:08:28.455Z,4.55
2022-11-12T12:11:13.341Z,5.07
2022-11-12T12:13:59.513Z,4.50
2022-11-12T12:55:46.239Z,4.85
2022-11-12T13:06:50.519Z,5.40
2022-11-12T13:36:35.456Z,5.13
2022-11-12T13:44:23.932Z,5.35
2022-11-12T14:25:49.641Z,5.85
2022-11-12T14:37:07.282Z,5.35
2022-11-12T14:39:35.606Z,5.65
2022-11-12T14:42:03.204Z,5.80
2022-11-12T14:53:24.667Z,5.65
2022-11-12T15:14:18.106Z,5.78
2022-11-12T15:25:37.676Z,5.47
2022-11-12T15:32:23.523Z,7.00
2022-11-12T15:34:52.079Z,7.25
2022-11-12T15:37:19.441Z,7.05
2022-11-12T15:53:08.419Z,9.98
2022-11-12T16:30:13.714Z,9.20
2022-11-12T16:59:16.500Z,8.57
2022-11-12T17:10:17.133Z,9.17
2022-11-12T17:30:25.632Z,10.35
2022-11-12T17:32:53.118Z,10.77
2022-11-12T17:40:37.165Z,11.10
2022-11-12T18:04:48.834Z,11.05
2022-11-12T18:15:41.263Z,12.57
2022-11-12T18:18:08.866Z,13.30
2022-11-12T18:20:38.034Z,11.82
2022-11-12T18:23:05.623Z,13.77
2022-11-12T18:35:29.734Z,13.10
2022-11-12T18:37:57.711Z,12.88
2022-11-12T18:40:25.557Z,14.40
2022-11-12T18:51:44.176Z,15.25
2022-11-12T18:54:11.530Z,14.68
2022-11-12T18:57:32.409Z,16.17
2022-11-12T19:00:00.039Z,16.75
2022-11-12T19:02:27.858Z,17.50
2022-11-12T19:04:55.818Z,19.08
2022-11-12T19:07:23.655Z,18.23
2022-11-12T19:09:51.429Z,16.95
2022-11-12T19:12:18.980Z,16.77
2022-11-12T19:46:07.626Z,17.40
2022-11-12T19:48:35.826Z,17.33
2022-11-12T19:51:05.686Z,17.40
2022-11-12T19:57:59.691Z,16.27
2022-11-12T20:00:27.171Z,16.98
2022-11-12T20:02:54.765Z,16.95
2022-11-12T20:14:17.462Z,16.42
2022-11-12T20:35:22.130Z,20.23
2022-11-12T20:56:29.971Z,17.95
2022-11-12T20:58:58.991Z,18.98
2022-11-12T21:01:28.537Z,17.80
2022-11-12T21:03:57.460Z,18.38
2022-11-12T21:06:28.762Z,17.30
2022-11-12T21:13:16.048Z,18.05
2022-11-12T21:15:46.774Z,20.40
2022-11-12T21:18:14.384Z,19.02
2022-11-12T21:20:42.220Z,19.27
2022-11-12T21:23:09.937Z,18.63
2022-11-12T21:25:38.995Z,17.55
2022-11-12T21:28:07.309Z,18.00
2022-11-12T21:30:35.289Z,18.70
2022-11-12T21:33:03.008Z,19.70
2022-11-12T21:35:30.954Z,19.27
2022-11-12T21:37:58.920Z,17.75
2022-11-12T21:40:26.769Z,18.27
2022-11-12T21:42:54.907Z,19.27
2022-11-12T21:45:22.554Z,16.75
2022-11-12T21:47:50.519Z,18.00
2022-11-12T21:50:18.475Z,18.35
2022-11-12T21:52:46.445Z,17.73
2022-11-12T21:55:14.182Z,16.60
2022-11-12T21:57:45.138Z,16.77
2022-11-12T22:00:40.499Z,16.05
2022-11-12T22:03:01.086Z,15.63
2022-11-12T22:05:28.689Z,16.33
2022-11-12T22:07:56.322Z,14.98
2022-11-12T22:10:24.129Z,15.65
2022-11-12T22:13:19.684Z,15.40
2022-11-12T22:15:39.624Z,15.68
2022-11-12T22:18:07.340Z,15.73
2022-11-12T22:20:35.304Z,15.05
2022-11-12T22:23:03.011Z,15.48
2022-11-12T22:25:31.269Z,15.20
2022-11-12T22:28:15.499Z,15.90
2022-11-12T22:32:02.952Z,16.92
2022-11-12T22:34:43.759Z,15.98
2022-11-12T22:37:13.217Z,15.25
2022-11-12T22:39:40.722Z,15.95
2022-11-12T22:42:09.390Z,17.38
2022-11-12T22:44:36.864Z,17.63
2022-11-12T22:47:04.462Z,17.05
2022-11-12T22:49:31.945Z,16.23
2022-11-12T22:51:59.429Z,15.93
2022-11-12T22:54:27.030Z,16.33
2022-11-12T22:56:54.391Z,18.13
2022-11-12T22:59:21.756Z,16.38
2022-11-12T23:01:49.305Z,16.92
2022-11-12T23:04:16.968Z,17.98
2022-11-12T23:06:44.455Z,16.50
2022-11-12T23:09:16.490Z,16.55
2022-11-12T23:11:43.961Z,17.60
2022-11-12T23:14:11.435Z,17.58
2022-11-12T23:16:39.045Z,16.73
2022-11-12T23:23:26.088Z,16.52
2022-11-12T23:25:53.684Z,17.02
2022-11-12T23:45:43.146Z,14.75
